createdAt,value
2022-09-10T06:14:30.582Z,153.57
2022-09-10T06:24:30.452Z,137.09
2022-09-10T06:34:30.717Z,132.59
2022-09-10T06:44:30.604Z,160.47
2022-09-10T06:54:30.481Z,163.22
2022-09-10T07:04:30.574Z,136.04
2022-09-10T07:14:30.580Z,139.88
2022-09-10T07:24:30.597Z,127.30
2022-09-10T07:34:30.582Z,156.53
2022-09-10T07:44:30.523Z,157.68
2022-09-10T07:54:30.571Z,173.63
2022-09-10T08:04:34.594Z,178.67
2022-09-10T08:14:30.594Z,177.31
2022-09-10T08:24:30.615Z,179.64
2022-09-10T08:34:30.447Z,178.37
2022-09-10T08:44:30.571Z,174.10
2022-09-10T08:54:30.684Z,179.88
2022-09-10T09:04:30.669Z,178.72
2022-09-10T09:14:30.616Z,179.11
2022-09-10T09:24:30.549Z,165.93
2022-09-10T09:34:30.741Z,165.51
2022-09-10T09:44:30.573Z,175.00
2022-09-10T09:55:03.547Z,173.95
2022-09-10T10:04:30.728Z,171.12
2022-09-10T10:14:30.807Z,170.64
2022-09-10T10:24:30.784Z,163.44
2022-09-10T10:34:30.766Z,173.09
2022-09-10T10:44:30.808Z,174.76
2022-09-10T10:54:30.791Z,162.39
2022-09-10T11:04:30.888Z,146.37
2022-09-10T11:14:30.791Z,168.69
2022-09-10T11:24:30.834Z,177.13
2022-09-10T11:34:30.825Z,168.05
2022-09-10T11:44:35.798Z,170.79
2022-09-10T11:54:30.945Z,173.49
2022-09-10T12:04:30.854Z,172.30
2022-09-10T12:14:30.992Z,158.54
2022-09-10T12:32:04.598Z,171.71
2022-09-10T12:42:04.739Z,135.16
2022-09-10T12:52:04.559Z,154.51
2022-09-10T13:02:05.672Z,126.30
2022-09-10T13:12:04.622Z,119.46
2022-09-10T13:22:04.734Z,173.54
2022-09-10T13:32:04.632Z,177.51
2022-09-10T13:42:04.652Z,179.08
2022-09-10T13:52:04.707Z,179.20
2022-09-10T14:02:04.767Z,179.00
2022-09-10T14:12:04.723Z,179.85
2022-09-10T14:22:08.252Z,179.72
2022-09-10T14:32:04.704Z,181.10
2022-09-10T14:42:04.686Z,180.00
2022-09-10T14:52:04.889Z,180.00
2022-09-10T15:02:04.822Z,180.00
2022-09-10T15:12:04.667Z,199.75
2022-09-10T15:22:04.737Z,330.56
2022-09-10T15:32:04.725Z,225.00
2022-09-10T15:42:04.701Z,225.00
2022-09-10T15:52:04.701Z,301.59
2022-09-10T16:02:04.807Z,248.15
2022-09-10T16:12:04.842Z,297.59
2022-09-10T16:22:04.993Z,315.00
2022-09-10T16:32:05.263Z,289.80
2022-09-10T16:42:05.092Z,219.10
2022-09-10T16:52:05.203Z,315.00
2022-09-10T17:02:05.086Z,323.67
2022-09-10T17:12:05.132Z,315.00
2022-09-10T17:22:05.129Z,315.00
2022-09-10T17:32:05.079Z,315.00
2022-09-10T17:42:05.268Z,315.00
2022-09-10T17:52:05.109Z,280.07
2022-09-10T18:02:05.099Z,180.00
2022-09-10T18:12:04.912Z,180.00
2022-09-10T18:22:05.333Z,180.00
2022-09-10T18:32:05.446Z,180.00
2022-09-10T18:42:05.432Z,191.29
2022-09-10T18:52:05.478Z,249.22
2022-09-10T19:02:05.538Z,315.00
2022-09-10T19:12:05.562Z,315.00
